<?xml version="1.0" encoding="UTF-8" standalone="no" ?>
<gpx xmlns="http://www.topografix.com/GPX/1/1" xmlns:xsi="http://www.w3.org/2001/XMLSchema-instance" xsi:schemaLocation="http://www.topografix.com/GPX/1/1 http://www.topografix.com/GPX/1/1/gpx.xsd" version="1.1" creator="VisuGPX - https://www.visugpx.com">
  <metadata>
    <name>bayons Dignes les bains</name>
    <desc><![CDATA[sur les chemins du soleil]]></desc>
  </metadata>
  <wpt lat="44.0853" lon="6.21597">
    <ele>585</ele>
    <name><![CDATA[Ave Georges Pompidou]]></name>
    <desc><![CDATA[Ave Georges Pompidou]]></desc>
    <cmt><![CDATA[Ave Georges Pompidou]]></cmt>
  </wpt>
  <wpt lat="44.0853" lon="6.21597">
    <ele>585</ele>
    <name><![CDATA[Ave Georges Pompidou1]]></name>
    <desc><![CDATA[Ave Georges Pompidou]]></desc>
    <cmt><![CDATA[Ave Georges Pompidou]]></cmt>
  </wpt>
  <wpt lat="44.08529" lon="6.21598">
    <ele>585.2460938</ele>
    <name><![CDATA[Chateau de Sieyes]]></name>
    <desc><![CDATA[Ave Georges Pompidou]]></desc>
    <cmt><![CDATA[Ave Georges Pompidou]]></cmt>
  </wpt>
  <trk>
    <name><![CDATA[1 Bayons Dignes les bains]]></name>
    <trkseg>
      <trkpt lat="44.33926" lon="6.16467">
        <ele>887.9</ele>
        <time>2013-07-11T21:50:45Z</time>
      </trkpt>
      <trkpt lat="44.33839" lon="6.16642">
        <ele>878.8</ele>
        <time>2013-07-11T21:50:35Z</time>
      </trkpt>
      <trkpt lat="44.33796" lon="6.16806">
        <ele>878</ele>
        <time>2013-07-11T21:50:25Z</time>
      </trkpt>
      <trkpt lat="44.33829" lon="6.16967">
        <ele>878</ele>
        <time>2013-07-11T21:50:15Z</time>
      </trkpt>
      <trkpt lat="44.33616" lon="6.16967">
        <ele>879</ele>
        <time>2013-07-11T21:50:05Z</time>
      </trkpt>
      <trkpt lat="44.33529" lon="6.1702">
        <ele>886.3</ele>
        <time>2013-07-11T21:49:55Z</time>
      </trkpt>
      <trkpt lat="44.33168" lon="6.17033">
        <ele>918.1</ele>
        <time>2013-07-11T21:49:45Z</time>
      </trkpt>
      <trkpt lat="44.32969" lon="6.17089">
        <ele>940.7</ele>
        <time>2013-07-11T21:49:35Z</time>
      </trkpt>
      <trkpt lat="44.32821" lon="6.17198">
        <ele>962.1</ele>
        <time>2013-07-11T21:49:25Z</time>
      </trkpt>
      <trkpt lat="44.32344" lon="6.17161">
        <ele>1058.4</ele>
        <time>2013-07-11T21:49:15Z</time>
      </trkpt>
      <trkpt lat="44.32171" lon="6.17306">
        <ele>1124.6</ele>
        <time>2013-07-11T21:49:05Z</time>
      </trkpt>
      <trkpt lat="44.3223" lon="6.17142">
        <ele>1109.3</ele>
        <time>2013-07-11T21:48:55Z</time>
      </trkpt>
      <trkpt lat="44.3209" lon="6.17234">
        <ele>1164.3</ele>
        <time>2013-07-11T21:48:45Z</time>
      </trkpt>
      <trkpt lat="44.32109" lon="6.17158">
        <ele>1167.2</ele>
        <time>2013-07-11T21:48:35Z</time>
      </trkpt>
      <trkpt lat="44.32009" lon="6.1728">
        <ele>1197.9</ele>
        <time>2013-07-11T21:48:25Z</time>
      </trkpt>
      <trkpt lat="44.32009" lon="6.17125">
        <ele>1225.8</ele>
        <time>2013-07-11T21:48:15Z</time>
      </trkpt>
      <trkpt lat="44.3185" lon="6.17287">
        <ele>1286.5</ele>
        <time>2013-07-11T21:48:05Z</time>
      </trkpt>
      <trkpt lat="44.31845" lon="6.17287">
        <ele>1289.8</ele>
        <time>2013-07-11T21:47:55Z</time>
      </trkpt>
      <trkpt lat="44.31867" lon="6.17175">
        <ele>1316</ele>
        <time>2013-07-11T21:47:45Z</time>
      </trkpt>
      <trkpt lat="44.31743" lon="6.17191">
        <ele>1389.6</ele>
        <time>2013-07-11T21:47:35Z</time>
      </trkpt>
      <trkpt lat="44.31659" lon="6.17175">
        <ele>1434.8</ele>
        <time>2013-07-11T21:47:25Z</time>
      </trkpt>
      <trkpt lat="44.31654" lon="6.17171">
        <ele>1437.6</ele>
        <time>2013-07-11T21:47:15Z</time>
      </trkpt>
      <trkpt lat="44.31613" lon="6.17254">
        <ele>1458.4</ele>
        <time>2013-07-11T21:47:05Z</time>
      </trkpt>
      <trkpt lat="44.31538" lon="6.17369">
        <ele>1516.5</ele>
        <time>2013-07-11T21:46:55Z</time>
      </trkpt>
      <trkpt lat="44.31511" lon="6.17211">
        <ele>1527.3</ele>
        <time>2013-07-11T21:46:45Z</time>
      </trkpt>
      <trkpt lat="44.31392" lon="6.17069">
        <ele>1544.8</ele>
        <time>2013-07-11T21:46:35Z</time>
      </trkpt>
      <trkpt lat="44.31317" lon="6.1728">
        <ele>1566.5</ele>
        <time>2013-07-11T21:46:25Z</time>
      </trkpt>
      <trkpt lat="44.31293" lon="6.1728">
        <ele>1562.8</ele>
        <time>2013-07-11T21:46:15Z</time>
      </trkpt>
      <trkpt lat="44.31271" lon="6.17138">
        <ele>1545.5</ele>
        <time>2013-07-11T21:46:05Z</time>
      </trkpt>
      <trkpt lat="44.31233" lon="6.17119">
        <ele>1547.8</ele>
        <time>2013-07-11T21:45:55Z</time>
      </trkpt>
      <trkpt lat="44.31247" lon="6.17273">
        <ele>1560.1</ele>
        <time>2013-07-11T21:45:45Z</time>
      </trkpt>
      <trkpt lat="44.31158" lon="6.17435">
        <ele>1591</ele>
        <time>2013-07-11T21:45:35Z</time>
      </trkpt>
      <trkpt lat="44.31244" lon="6.17454">
        <ele>1588.4</ele>
        <time>2013-07-11T21:45:25Z</time>
      </trkpt>
      <trkpt lat="44.31285" lon="6.17717">
        <ele>1635.6</ele>
        <time>2013-07-11T21:45:15Z</time>
      </trkpt>
      <trkpt lat="44.31395" lon="6.17721">
        <ele>1644.8</ele>
        <time>2013-07-11T21:45:05Z</time>
      </trkpt>
      <trkpt lat="44.3129" lon="6.17783">
        <ele>1653.3</ele>
        <time>2013-07-11T21:44:55Z</time>
      </trkpt>
      <trkpt lat="44.31206" lon="6.17642">
        <ele>1630.5</ele>
        <time>2013-07-11T21:44:45Z</time>
      </trkpt>
      <trkpt lat="44.31117" lon="6.17717">
        <ele>1648</ele>
        <time>2013-07-11T21:44:35Z</time>
      </trkpt>
      <trkpt lat="44.31099" lon="6.17777">
        <ele>1654.1</ele>
        <time>2013-07-11T21:44:25Z</time>
      </trkpt>
      <trkpt lat="44.30945" lon="6.17892">
        <ele>1634.5</ele>
        <time>2013-07-11T21:44:15Z</time>
      </trkpt>
      <trkpt lat="44.3108" lon="6.18211">
        <ele>1635.3</ele>
        <time>2013-07-11T21:44:05Z</time>
      </trkpt>
      <trkpt lat="44.3101" lon="6.1828">
        <ele>1623.9</ele>
        <time>2013-07-11T21:43:55Z</time>
      </trkpt>
      <trkpt lat="44.30934" lon="6.18247">
        <ele>1600.8</ele>
        <time>2013-07-11T21:43:45Z</time>
      </trkpt>
      <trkpt lat="44.30767" lon="6.18385">
        <ele>1595.4</ele>
        <time>2013-07-11T21:43:35Z</time>
      </trkpt>
      <trkpt lat="44.30632" lon="6.18514">
        <ele>1575.7</ele>
        <time>2013-07-11T21:43:25Z</time>
      </trkpt>
      <trkpt lat="44.3056" lon="6.18576">
        <ele>1555.4</ele>
        <time>2013-07-11T21:43:15Z</time>
      </trkpt>
      <trkpt lat="44.30562" lon="6.18777">
        <ele>1514.4</ele>
        <time>2013-07-11T21:43:05Z</time>
      </trkpt>
      <trkpt lat="44.30597" lon="6.18777">
        <ele>1525.4</ele>
        <time>2013-07-11T21:42:55Z</time>
      </trkpt>
      <trkpt lat="44.3063" lon="6.18793">
        <ele>1538.2</ele>
        <time>2013-07-11T21:42:45Z</time>
      </trkpt>
      <trkpt lat="44.30616" lon="6.18902">
        <ele>1545</ele>
        <time>2013-07-11T21:42:35Z</time>
      </trkpt>
      <trkpt lat="44.30557" lon="6.18954">
        <ele>1517.1</ele>
        <time>2013-07-11T21:42:25Z</time>
      </trkpt>
      <trkpt lat="44.30578" lon="6.19001">
        <ele>1531.9</ele>
        <time>2013-07-11T21:42:15Z</time>
      </trkpt>
      <trkpt lat="44.30538" lon="6.19073">
        <ele>1513.9</ele>
        <time>2013-07-11T21:42:05Z</time>
      </trkpt>
      <trkpt lat="44.30543" lon="6.19116">
        <ele>1518.9</ele>
        <time>2013-07-11T21:41:55Z</time>
      </trkpt>
      <trkpt lat="44.30508" lon="6.19172">
        <ele>1505.3</ele>
        <time>2013-07-11T21:41:45Z</time>
      </trkpt>
      <trkpt lat="44.30481" lon="6.19277">
        <ele>1494.4</ele>
        <time>2013-07-11T21:41:35Z</time>
      </trkpt>
      <trkpt lat="44.30465" lon="6.19274">
        <ele>1488.9</ele>
        <time>2013-07-11T21:41:25Z</time>
      </trkpt>
      <trkpt lat="44.30479" lon="6.19149">
        <ele>1492.4</ele>
        <time>2013-07-11T21:41:15Z</time>
      </trkpt>
      <trkpt lat="44.30479" lon="6.18902">
        <ele>1476.5</ele>
        <time>2013-07-11T21:41:05Z</time>
      </trkpt>
      <trkpt lat="44.3043" lon="6.18642">
        <ele>1470.6</ele>
        <time>2013-07-11T21:40:55Z</time>
      </trkpt>
      <trkpt lat="44.30387" lon="6.18524">
        <ele>1450.2</ele>
        <time>2013-07-11T21:40:45Z</time>
      </trkpt>
      <trkpt lat="44.30384" lon="6.18642">
        <ele>1445.5</ele>
        <time>2013-07-11T21:40:35Z</time>
      </trkpt>
      <trkpt lat="44.30347" lon="6.18589">
        <ele>1437.6</ele>
        <time>2013-07-11T21:40:25Z</time>
      </trkpt>
      <trkpt lat="44.30355" lon="6.18464">
        <ele>1438</ele>
        <time>2013-07-11T21:40:15Z</time>
      </trkpt>
      <trkpt lat="44.30301" lon="6.18313">
        <ele>1414.7</ele>
        <time>2013-07-11T21:40:05Z</time>
      </trkpt>
      <trkpt lat="44.30204" lon="6.18214">
        <ele>1404.9</ele>
        <time>2013-07-11T21:39:55Z</time>
      </trkpt>
      <trkpt lat="44.30142" lon="6.18102">
        <ele>1404</ele>
        <time>2013-07-11T21:39:45Z</time>
      </trkpt>
      <trkpt lat="44.3008" lon="6.18102">
        <ele>1398.8</ele>
        <time>2013-07-11T21:39:35Z</time>
      </trkpt>
      <trkpt lat="44.30018" lon="6.18037">
        <ele>1394.8</ele>
        <time>2013-07-11T21:39:25Z</time>
      </trkpt>
      <trkpt lat="44.29942" lon="6.18027">
        <ele>1390.6</ele>
        <time>2013-07-11T21:39:15Z</time>
      </trkpt>
      <trkpt lat="44.2994" lon="6.18027">
        <ele>1390.6</ele>
        <time>2013-07-11T21:39:05Z</time>
      </trkpt>
      <trkpt lat="44.29862" lon="6.17941">
        <ele>1370.2</ele>
        <time>2013-07-11T21:38:55Z</time>
      </trkpt>
      <trkpt lat="44.29832" lon="6.17941">
        <ele>1366.1</ele>
        <time>2013-07-11T21:38:45Z</time>
      </trkpt>
      <trkpt lat="44.29794" lon="6.18046">
        <ele>1384.4</ele>
        <time>2013-07-11T21:38:35Z</time>
      </trkpt>
      <trkpt lat="44.29765" lon="6.18102">
        <ele>1386.3</ele>
        <time>2013-07-11T21:38:25Z</time>
      </trkpt>
      <trkpt lat="44.29721" lon="6.18139">
        <ele>1379</ele>
        <time>2013-07-11T21:38:15Z</time>
      </trkpt>
      <trkpt lat="44.29622" lon="6.18135">
        <ele>1364.8</ele>
        <time>2013-07-11T21:38:05Z</time>
      </trkpt>
      <trkpt lat="44.2953" lon="6.18221">
        <ele>1371.6</ele>
        <time>2013-07-11T21:37:55Z</time>
      </trkpt>
      <trkpt lat="44.29449" lon="6.18352">
        <ele>1377.2</ele>
        <time>2013-07-11T21:37:45Z</time>
      </trkpt>
      <trkpt lat="44.29371" lon="6.18474">
        <ele>1382</ele>
        <time>2013-07-11T21:37:35Z</time>
      </trkpt>
      <trkpt lat="44.29263" lon="6.18579">
        <ele>1389.5</ele>
        <time>2013-07-11T21:37:25Z</time>
      </trkpt>
      <trkpt lat="44.29309" lon="6.18435">
        <ele>1392.2</ele>
        <time>2013-07-11T21:37:15Z</time>
      </trkpt>
      <trkpt lat="44.29239" lon="6.18352">
        <ele>1412.4</ele>
        <time>2013-07-11T21:37:05Z</time>
      </trkpt>
      <trkpt lat="44.29277" lon="6.18343">
        <ele>1404.4</ele>
        <time>2013-07-11T21:36:55Z</time>
      </trkpt>
      <trkpt lat="44.29298" lon="6.18198">
        <ele>1411.7</ele>
        <time>2013-07-11T21:36:45Z</time>
      </trkpt>
      <trkpt lat="44.29255" lon="6.1827">
        <ele>1413.8</ele>
        <time>2013-07-11T21:36:35Z</time>
      </trkpt>
      <trkpt lat="44.29164" lon="6.18244">
        <ele>1434.8</ele>
        <time>2013-07-11T21:36:25Z</time>
      </trkpt>
      <trkpt lat="44.29161" lon="6.18343">
        <ele>1433.3</ele>
        <time>2013-07-11T21:36:15Z</time>
      </trkpt>
      <trkpt lat="44.29158" lon="6.18422">
        <ele>1428.7</ele>
        <time>2013-07-11T21:36:05Z</time>
      </trkpt>
      <trkpt lat="44.2911" lon="6.18415">
        <ele>1439.5</ele>
        <time>2013-07-11T21:35:55Z</time>
      </trkpt>
      <trkpt lat="44.29048" lon="6.18468">
        <ele>1446.7</ele>
        <time>2013-07-11T21:35:45Z</time>
      </trkpt>
      <trkpt lat="44.2894" lon="6.18504">
        <ele>1453.8</ele>
        <time>2013-07-11T21:35:35Z</time>
      </trkpt>
      <trkpt lat="44.28867" lon="6.18445">
        <ele>1468.2</ele>
        <time>2013-07-11T21:35:25Z</time>
      </trkpt>
      <trkpt lat="44.28864" lon="6.185">
        <ele>1456.6</ele>
        <time>2013-07-11T21:35:15Z</time>
      </trkpt>
      <trkpt lat="44.28727" lon="6.18606">
        <ele>1455.3</ele>
        <time>2013-07-11T21:35:05Z</time>
      </trkpt>
      <trkpt lat="44.28662" lon="6.18635">
        <ele>1469.5</ele>
        <time>2013-07-11T21:34:55Z</time>
      </trkpt>
      <trkpt lat="44.28751" lon="6.18767">
        <ele>1444.7</ele>
        <time>2013-07-11T21:34:45Z</time>
      </trkpt>
      <trkpt lat="44.28689" lon="6.18856">
        <ele>1454.5</ele>
        <time>2013-07-11T21:34:35Z</time>
      </trkpt>
      <trkpt lat="44.28635" lon="6.18856">
        <ele>1464.2</ele>
        <time>2013-07-11T21:34:25Z</time>
      </trkpt>
      <trkpt lat="44.28598" lon="6.18912">
        <ele>1468.2</ele>
        <time>2013-07-11T21:34:15Z</time>
      </trkpt>
      <trkpt lat="44.2856" lon="6.18826">
        <ele>1475.5</ele>
        <time>2013-07-11T21:34:05Z</time>
      </trkpt>
      <trkpt lat="44.28603" lon="6.18724">
        <ele>1482.5</ele>
        <time>2013-07-11T21:33:55Z</time>
      </trkpt>
      <trkpt lat="44.28476" lon="6.18626">
        <ele>1494.8</ele>
        <time>2013-07-11T21:33:45Z</time>
      </trkpt>
      <trkpt lat="44.28474" lon="6.18622">
        <ele>1495</ele>
        <time>2013-07-11T21:33:35Z</time>
      </trkpt>
      <trkpt lat="44.28439" lon="6.18484">
        <ele>1497.5</ele>
        <time>2013-07-11T21:33:25Z</time>
      </trkpt>
      <trkpt lat="44.28325" lon="6.18402">
        <ele>1516.6</ele>
        <time>2013-07-11T21:33:15Z</time>
      </trkpt>
      <trkpt lat="44.28323" lon="6.18398">
        <ele>1517.1</ele>
        <time>2013-07-11T21:33:05Z</time>
      </trkpt>
      <trkpt lat="44.28385" lon="6.18369">
        <ele>1512.5</ele>
        <time>2013-07-11T21:32:55Z</time>
      </trkpt>
      <trkpt lat="44.28387" lon="6.18369">
        <ele>1512.1</ele>
        <time>2013-07-11T21:32:45Z</time>
      </trkpt>
      <trkpt lat="44.28406" lon="6.183">
        <ele>1519.2</ele>
        <time>2013-07-11T21:32:35Z</time>
      </trkpt>
      <trkpt lat="44.28409" lon="6.183">
        <ele>1518.8</ele>
        <time>2013-07-11T21:32:25Z</time>
      </trkpt>
      <trkpt lat="44.28568" lon="6.18283">
        <ele>1525.3</ele>
        <time>2013-07-11T21:32:15Z</time>
      </trkpt>
      <trkpt lat="44.28603" lon="6.18247">
        <ele>1530</ele>
        <time>2013-07-11T21:32:05Z</time>
      </trkpt>
      <trkpt lat="44.28608" lon="6.18158">
        <ele>1541.1</ele>
        <time>2013-07-11T21:31:55Z</time>
      </trkpt>
      <trkpt lat="44.28579" lon="6.18195">
        <ele>1539.8</ele>
        <time>2013-07-11T21:31:45Z</time>
      </trkpt>
      <trkpt lat="44.28255" lon="6.18214">
        <ele>1549</ele>
        <time>2013-07-11T21:31:35Z</time>
      </trkpt>
      <trkpt lat="44.28234" lon="6.18283">
        <ele>1536.4</ele>
        <time>2013-07-11T21:31:25Z</time>
      </trkpt>
      <trkpt lat="44.28118" lon="6.18326">
        <ele>1549.7</ele>
        <time>2013-07-11T21:31:15Z</time>
      </trkpt>
      <trkpt lat="44.28078" lon="6.18464">
        <ele>1548.9</ele>
        <time>2013-07-11T21:31:05Z</time>
      </trkpt>
      <trkpt lat="44.27972" lon="6.18662">
        <ele>1568.7</ele>
        <time>2013-07-11T21:30:55Z</time>
      </trkpt>
      <trkpt lat="44.28086" lon="6.18655">
        <ele>1569.7</ele>
        <time>2013-07-11T21:30:45Z</time>
      </trkpt>
      <trkpt lat="44.28175" lon="6.18685">
        <ele>1561.5</ele>
        <time>2013-07-11T21:30:35Z</time>
      </trkpt>
      <trkpt lat="44.28153" lon="6.18783">
        <ele>1571</ele>
        <time>2013-07-11T21:30:25Z</time>
      </trkpt>
      <trkpt lat="44.28126" lon="6.18734">
        <ele>1574.7</ele>
        <time>2013-07-11T21:30:15Z</time>
      </trkpt>
      <trkpt lat="44.28069" lon="6.18813">
        <ele>1588.6</ele>
        <time>2013-07-11T21:30:05Z</time>
      </trkpt>
      <trkpt lat="44.28032" lon="6.18797">
        <ele>1593.1</ele>
        <time>2013-07-11T21:29:55Z</time>
      </trkpt>
      <trkpt lat="44.27921" lon="6.18908">
        <ele>1624.5</ele>
        <time>2013-07-11T21:29:45Z</time>
      </trkpt>
      <trkpt lat="44.27797" lon="6.18964">
        <ele>1627.5</ele>
        <time>2013-07-11T21:29:35Z</time>
      </trkpt>
      <trkpt lat="44.27813" lon="6.19057">
        <ele>1637.8</ele>
        <time>2013-07-11T21:29:25Z</time>
      </trkpt>
      <trkpt lat="44.27789" lon="6.19195">
        <ele>1649.7</ele>
        <time>2013-07-11T21:29:15Z</time>
      </trkpt>
      <trkpt lat="44.27813" lon="6.19237">
        <ele>1646.8</ele>
        <time>2013-07-11T21:29:05Z</time>
      </trkpt>
      <trkpt lat="44.27601" lon="6.19655">
        <ele>1670.8</ele>
        <time>2013-07-11T21:28:55Z</time>
      </trkpt>
      <trkpt lat="44.27606" lon="6.19997">
        <ele>1630.4</ele>
        <time>2013-07-11T21:28:45Z</time>
      </trkpt>
      <trkpt lat="44.27285" lon="6.20982">
        <ele>1694.4</ele>
        <time>2013-07-11T21:28:35Z</time>
      </trkpt>
      <trkpt lat="44.27186" lon="6.2113">
        <ele>1662.9</ele>
        <time>2013-07-11T21:28:25Z</time>
      </trkpt>
      <trkpt lat="44.27142" lon="6.21328">
        <ele>1627.9</ele>
        <time>2013-07-11T21:28:15Z</time>
      </trkpt>
      <trkpt lat="44.27142" lon="6.21476">
        <ele>1601</ele>
        <time>2013-07-11T21:28:05Z</time>
      </trkpt>
      <trkpt lat="44.272" lon="6.21382">
        <ele>1591.8</ele>
        <time>2013-07-11T21:27:55Z</time>
      </trkpt>
      <trkpt lat="44.27191" lon="6.21591">
        <ele>1555.1</ele>
        <time>2013-07-11T21:27:45Z</time>
      </trkpt>
      <trkpt lat="44.27227" lon="6.21613">
        <ele>1537.5</ele>
        <time>2013-07-11T21:27:35Z</time>
      </trkpt>
      <trkpt lat="44.2729" lon="6.21459">
        <ele>1561.8</ele>
        <time>2013-07-11T21:27:25Z</time>
      </trkpt>
      <trkpt lat="44.27267" lon="6.21514">
        <ele>1545.3</ele>
        <time>2013-07-11T21:27:15Z</time>
      </trkpt>
      <trkpt lat="44.27267" lon="6.21733">
        <ele>1479</ele>
        <time>2013-07-11T21:27:05Z</time>
      </trkpt>
      <trkpt lat="44.27182" lon="6.21958">
        <ele>1413.3</ele>
        <time>2013-07-11T21:26:55Z</time>
      </trkpt>
      <trkpt lat="44.27133" lon="6.22238">
        <ele>1375.8</ele>
        <time>2013-07-11T21:26:45Z</time>
      </trkpt>
      <trkpt lat="44.27263" lon="6.22463">
        <ele>1352.1</ele>
        <time>2013-07-11T21:26:35Z</time>
      </trkpt>
      <trkpt lat="44.27299" lon="6.22709">
        <ele>1332</ele>
        <time>2013-07-11T21:26:25Z</time>
      </trkpt>
      <trkpt lat="44.2738" lon="6.23044">
        <ele>1330.9</ele>
        <time>2013-07-11T21:26:15Z</time>
      </trkpt>
      <trkpt lat="44.27312" lon="6.23351">
        <ele>1298.5</ele>
        <time>2013-07-11T21:26:05Z</time>
      </trkpt>
      <trkpt lat="44.27357" lon="6.23713">
        <ele>1257.7</ele>
        <time>2013-07-11T21:25:55Z</time>
      </trkpt>
      <trkpt lat="44.2742" lon="6.23938">
        <ele>1238</ele>
        <time>2013-07-11T21:25:45Z</time>
      </trkpt>
      <trkpt lat="44.27514" lon="6.23987">
        <ele>1224.3</ele>
        <time>2013-07-11T21:25:35Z</time>
      </trkpt>
      <trkpt lat="44.27591" lon="6.23943">
        <ele>1219.1</ele>
        <time>2013-07-11T21:25:25Z</time>
      </trkpt>
      <trkpt lat="44.27676" lon="6.23921">
        <ele>1212.7</ele>
        <time>2013-07-11T21:25:15Z</time>
      </trkpt>
      <trkpt lat="44.27586" lon="6.2413">
        <ele>1173.2</ele>
        <time>2013-07-11T21:25:05Z</time>
      </trkpt>
      <trkpt lat="44.2751" lon="6.24206">
        <ele>1163</ele>
        <time>2013-07-11T21:24:55Z</time>
      </trkpt>
      <trkpt lat="44.27573" lon="6.24195">
        <ele>1163.7</ele>
        <time>2013-07-11T21:24:45Z</time>
      </trkpt>
      <trkpt lat="44.27622" lon="6.24135">
        <ele>1175</ele>
        <time>2013-07-11T21:24:35Z</time>
      </trkpt>
      <trkpt lat="44.27645" lon="6.24146">
        <ele>1179.6</ele>
        <time>2013-07-11T21:24:25Z</time>
      </trkpt>
      <trkpt lat="44.27528" lon="6.24557">
        <ele>1185.1</ele>
        <time>2013-07-11T21:24:15Z</time>
      </trkpt>
      <trkpt lat="44.27433" lon="6.24711">
        <ele>1164.8</ele>
        <time>2013-07-11T21:24:05Z</time>
      </trkpt>
      <trkpt lat="44.27384" lon="6.24936">
        <ele>1167.2</ele>
        <time>2013-07-11T21:23:55Z</time>
      </trkpt>
      <trkpt lat="44.27285" lon="6.25171">
        <ele>1138.3</ele>
        <time>2013-07-11T21:23:45Z</time>
      </trkpt>
      <trkpt lat="44.27011" lon="6.25588">
        <ele>1075.5</ele>
        <time>2013-07-11T21:23:35Z</time>
      </trkpt>
      <trkpt lat="44.26984" lon="6.25703">
        <ele>1087.8</ele>
        <time>2013-07-11T21:23:25Z</time>
      </trkpt>
      <trkpt lat="44.26899" lon="6.2589">
        <ele>1088.2</ele>
        <time>2013-07-11T21:23:15Z</time>
      </trkpt>
      <trkpt lat="44.26751" lon="6.26054">
        <ele>1108.6</ele>
        <time>2013-07-11T21:23:05Z</time>
      </trkpt>
      <trkpt lat="44.26809" lon="6.26169">
        <ele>1171.6</ele>
        <time>2013-07-11T21:22:55Z</time>
      </trkpt>
      <trkpt lat="44.26921" lon="6.26158">
        <ele>1220.6</ele>
        <time>2013-07-11T21:22:45Z</time>
      </trkpt>
      <trkpt lat="44.26791" lon="6.26284">
        <ele>1207.9</ele>
        <time>2013-07-11T21:22:35Z</time>
      </trkpt>
      <trkpt lat="44.26688" lon="6.26235">
        <ele>1166.1</ele>
        <time>2013-07-11T21:22:25Z</time>
      </trkpt>
      <trkpt lat="44.26544" lon="6.26328">
        <ele>1153.5</ele>
        <time>2013-07-11T21:22:15Z</time>
      </trkpt>
      <trkpt lat="44.26652" lon="6.2652">
        <ele>1159</ele>
        <time>2013-07-11T21:22:05Z</time>
      </trkpt>
      <trkpt lat="44.26598" lon="6.26646">
        <ele>1137.1</ele>
        <time>2013-07-11T21:21:55Z</time>
      </trkpt>
      <trkpt lat="44.26544" lon="6.26482">
        <ele>1116.8</ele>
        <time>2013-07-11T21:21:45Z</time>
      </trkpt>
      <trkpt lat="44.26414" lon="6.26454">
        <ele>1089.9</ele>
        <time>2013-07-11T21:21:35Z</time>
      </trkpt>
      <trkpt lat="44.26526" lon="6.26624">
        <ele>1102.3</ele>
        <time>2013-07-11T21:21:25Z</time>
      </trkpt>
      <trkpt lat="44.26369" lon="6.26564">
        <ele>1047.6</ele>
        <time>2013-07-11T21:21:15Z</time>
      </trkpt>
      <trkpt lat="44.26404" lon="6.26833">
        <ele>1015.4</ele>
        <time>2013-07-11T21:21:05Z</time>
      </trkpt>
      <trkpt lat="44.26054" lon="6.26356">
        <ele>992.1</ele>
        <time>2013-07-11T21:20:55Z</time>
      </trkpt>
      <trkpt lat="44.25663" lon="6.26537">
        <ele>978.8</ele>
        <time>2013-07-11T21:20:45Z</time>
      </trkpt>
      <trkpt lat="44.24666" lon="6.2578">
        <ele>981.8</ele>
        <time>2013-07-11T21:20:35Z</time>
      </trkpt>
      <trkpt lat="44.24167" lon="6.26175">
        <ele>942.4</ele>
        <time>2013-07-11T21:20:25Z</time>
      </trkpt>
      <trkpt lat="44.2344" lon="6.2555">
        <ele>1004.6</ele>
        <time>2013-07-11T21:20:15Z</time>
      </trkpt>
      <trkpt lat="44.23143" lon="6.25731">
        <ele>908.8</ele>
        <time>2013-07-11T21:20:05Z</time>
      </trkpt>
      <trkpt lat="44.22847" lon="6.2657">
        <ele>894</ele>
        <time>2013-07-11T21:19:55Z</time>
      </trkpt>
      <trkpt lat="44.22523" lon="6.26882">
        <ele>870.7</ele>
        <time>2013-07-11T21:19:45Z</time>
      </trkpt>
      <trkpt lat="44.22173" lon="6.2726">
        <ele>841.9</ele>
        <time>2013-07-11T21:19:35Z</time>
      </trkpt>
      <trkpt lat="44.21674" lon="6.27622">
        <ele>891.1</ele>
        <time>2013-07-11T21:19:25Z</time>
      </trkpt>
      <trkpt lat="44.21364" lon="6.27557">
        <ele>806.6</ele>
        <time>2013-07-11T21:19:15Z</time>
      </trkpt>
      <trkpt lat="44.21028" lon="6.27277">
        <ele>809.1</ele>
        <time>2013-07-11T21:19:05Z</time>
      </trkpt>
      <trkpt lat="44.20772" lon="6.27376">
        <ele>818.2</ele>
        <time>2013-07-11T21:18:55Z</time>
      </trkpt>
      <trkpt lat="44.20677" lon="6.27343">
        <ele>803.8</ele>
        <time>2013-07-11T21:18:45Z</time>
      </trkpt>
      <trkpt lat="44.20516" lon="6.27491">
        <ele>821.8</ele>
        <time>2013-07-11T21:18:35Z</time>
      </trkpt>
      <trkpt lat="44.20286" lon="6.27425">
        <ele>788.8</ele>
        <time>2013-07-11T21:18:25Z</time>
      </trkpt>
      <trkpt lat="44.19977" lon="6.27705">
        <ele>785.6</ele>
        <time>2013-07-11T21:18:15Z</time>
      </trkpt>
      <trkpt lat="44.19505" lon="6.27622">
        <ele>757.1</ele>
        <time>2013-07-11T21:18:05Z</time>
      </trkpt>
      <trkpt lat="44.19343" lon="6.27557">
        <ele>761.3</ele>
        <time>2013-07-11T21:17:55Z</time>
      </trkpt>
      <trkpt lat="44.19141" lon="6.2703">
        <ele>782.9</ele>
        <time>2013-07-11T21:17:45Z</time>
      </trkpt>
      <trkpt lat="44.18872" lon="6.26948">
        <ele>748.8</ele>
        <time>2013-07-11T21:17:35Z</time>
      </trkpt>
      <trkpt lat="44.18872" lon="6.26734">
        <ele>757.8</ele>
        <time>2013-07-11T21:17:25Z</time>
      </trkpt>
      <trkpt lat="44.18616" lon="6.26372">
        <ele>749.5</ele>
        <time>2013-07-11T21:17:15Z</time>
      </trkpt>
      <trkpt lat="44.18265" lon="6.26191">
        <ele>727.8</ele>
        <time>2013-07-11T21:17:05Z</time>
      </trkpt>
      <trkpt lat="44.18077" lon="6.25895">
        <ele>710</ele>
        <time>2013-07-11T21:16:55Z</time>
      </trkpt>
      <trkpt lat="44.17551" lon="6.25681">
        <ele>714.2</ele>
        <time>2013-07-11T21:16:45Z</time>
      </trkpt>
      <trkpt lat="44.17443" lon="6.25286">
        <ele>729.7</ele>
        <time>2013-07-11T21:16:35Z</time>
      </trkpt>
      <trkpt lat="44.16938" lon="6.24963">
        <ele>710.8</ele>
        <time>2013-07-11T21:16:25Z</time>
      </trkpt>
      <trkpt lat="44.16732" lon="6.24737">
        <ele>695.7</ele>
        <time>2013-07-11T21:16:15Z</time>
      </trkpt>
      <trkpt lat="44.16689" lon="6.24517">
        <ele>723</ele>
        <time>2013-07-11T21:16:05Z</time>
      </trkpt>
      <trkpt lat="44.16608" lon="6.24421">
        <ele>693.4</ele>
        <time>2013-07-11T21:15:55Z</time>
      </trkpt>
      <trkpt lat="44.16489" lon="6.24221">
        <ele>695.9</ele>
        <time>2013-07-11T21:15:45Z</time>
      </trkpt>
      <trkpt lat="44.16379" lon="6.24">
        <ele>688.3</ele>
        <time>2013-07-11T21:15:35Z</time>
      </trkpt>
      <trkpt lat="44.16182" lon="6.23931">
        <ele>683.3</ele>
        <time>2013-07-11T21:15:25Z</time>
      </trkpt>
      <trkpt lat="44.16125" lon="6.23872">
        <ele>690.8</ele>
        <time>2013-07-11T21:15:15Z</time>
      </trkpt>
      <trkpt lat="44.16023" lon="6.23701">
        <ele>688.7</ele>
        <time>2013-07-11T21:15:05Z</time>
      </trkpt>
      <trkpt lat="44.15842" lon="6.23579">
        <ele>684.1</ele>
        <time>2013-07-11T21:14:55Z</time>
      </trkpt>
      <trkpt lat="44.15675" lon="6.23622">
        <ele>683.3</ele>
        <time>2013-07-11T21:14:45Z</time>
      </trkpt>
      <trkpt lat="44.15282" lon="6.24">
        <ele>665.9</ele>
        <time>2013-07-11T21:14:35Z</time>
      </trkpt>
      <trkpt lat="44.15188" lon="6.24033">
        <ele>669.7</ele>
        <time>2013-07-11T21:14:25Z</time>
      </trkpt>
      <trkpt lat="44.15109" lon="6.24168">
        <ele>672.5</ele>
        <time>2013-07-11T21:14:15Z</time>
      </trkpt>
      <trkpt lat="44.15072" lon="6.24211">
        <ele>670</ele>
        <time>2013-07-11T21:14:05Z</time>
      </trkpt>
      <trkpt lat="44.15031" lon="6.24237">
        <ele>665.4</ele>
        <time>2013-07-11T21:13:55Z</time>
      </trkpt>
      <trkpt lat="44.15026" lon="6.2424">
        <ele>665.1</ele>
        <time>2013-07-11T21:13:45Z</time>
      </trkpt>
      <trkpt lat="44.1498" lon="6.24221">
        <ele>669.2</ele>
        <time>2013-07-11T21:13:35Z</time>
      </trkpt>
      <trkpt lat="44.14762" lon="6.24069">
        <ele>664.1</ele>
        <time>2013-07-11T21:13:25Z</time>
      </trkpt>
      <trkpt lat="44.14508" lon="6.23822">
        <ele>668.7</ele>
        <time>2013-07-11T21:13:15Z</time>
      </trkpt>
      <trkpt lat="44.14403" lon="6.23826">
        <ele>659.1</ele>
        <time>2013-07-11T21:13:05Z</time>
      </trkpt>
      <trkpt lat="44.1422" lon="6.23799">
        <ele>652.5</ele>
        <time>2013-07-11T21:12:55Z</time>
      </trkpt>
      <trkpt lat="44.13948" lon="6.23622">
        <ele>655.5</ele>
        <time>2013-07-11T21:12:45Z</time>
      </trkpt>
      <trkpt lat="44.13781" lon="6.23602">
        <ele>652.5</ele>
        <time>2013-07-11T21:12:35Z</time>
      </trkpt>
      <trkpt lat="44.13681" lon="6.23668">
        <ele>643.9</ele>
        <time>2013-07-11T21:12:25Z</time>
      </trkpt>
      <trkpt lat="44.13436" lon="6.23767">
        <ele>640.8</ele>
        <time>2013-07-11T21:12:15Z</time>
      </trkpt>
      <trkpt lat="44.13366" lon="6.23836">
        <ele>636.2</ele>
        <time>2013-07-11T21:12:05Z</time>
      </trkpt>
      <trkpt lat="44.13234" lon="6.23836">
        <ele>627.4</ele>
        <time>2013-07-11T21:11:55Z</time>
      </trkpt>
      <trkpt lat="44.13032" lon="6.23711">
        <ele>634.6</ele>
        <time>2013-07-11T21:11:45Z</time>
      </trkpt>
      <trkpt lat="44.12975" lon="6.23625">
        <ele>632.2</ele>
        <time>2013-07-11T21:11:35Z</time>
      </trkpt>
      <trkpt lat="44.12754" lon="6.23342">
        <ele>626.1</ele>
        <time>2013-07-11T21:11:25Z</time>
      </trkpt>
      <trkpt lat="44.12339" lon="6.23385">
        <ele>627.4</ele>
        <time>2013-07-11T21:11:15Z</time>
      </trkpt>
      <trkpt lat="44.12113" lon="6.23408">
        <ele>613.1</ele>
        <time>2013-07-11T21:11:05Z</time>
      </trkpt>
      <trkpt lat="44.11905" lon="6.23421">
        <ele>632.9</ele>
        <time>2013-07-11T21:10:55Z</time>
      </trkpt>
      <trkpt lat="44.1184" lon="6.23405">
        <ele>629.4</ele>
        <time>2013-07-11T21:10:45Z</time>
      </trkpt>
      <trkpt lat="44.117" lon="6.23336">
        <ele>632.4</ele>
        <time>2013-07-11T21:10:35Z</time>
      </trkpt>
      <trkpt lat="44.11622" lon="6.23352">
        <ele>620.2</ele>
        <time>2013-07-11T21:10:25Z</time>
      </trkpt>
      <trkpt lat="44.11504" lon="6.23289">
        <ele>626.1</ele>
        <time>2013-07-11T21:10:15Z</time>
      </trkpt>
      <trkpt lat="44.11385" lon="6.23319">
        <ele>619.5</ele>
        <time>2013-07-11T21:10:05Z</time>
      </trkpt>
      <trkpt lat="44.11269" lon="6.23316">
        <ele>616.4</ele>
        <time>2013-07-11T21:09:55Z</time>
      </trkpt>
      <trkpt lat="44.11194" lon="6.23181">
        <ele>616.2</ele>
        <time>2013-07-11T21:09:45Z</time>
      </trkpt>
      <trkpt lat="44.11113" lon="6.23191">
        <ele>615.5</ele>
        <time>2013-07-11T21:09:35Z</time>
      </trkpt>
      <trkpt lat="44.11029" lon="6.23326">
        <ele>606.9</ele>
        <time>2013-07-11T21:09:25Z</time>
      </trkpt>
      <trkpt lat="44.1093" lon="6.23214">
        <ele>612.1</ele>
        <time>2013-07-11T21:09:15Z</time>
      </trkpt>
      <trkpt lat="44.1069" lon="6.22974">
        <ele>610</ele>
        <time>2013-07-11T21:09:05Z</time>
      </trkpt>
      <trkpt lat="44.1048" lon="6.22911">
        <ele>606</ele>
        <time>2013-07-11T21:08:55Z</time>
      </trkpt>
      <trkpt lat="44.10331" lon="6.22931">
        <ele>602.7</ele>
        <time>2013-07-11T21:08:45Z</time>
      </trkpt>
      <trkpt lat="44.0983" lon="6.23007">
        <ele>597.9</ele>
        <time>2013-07-11T21:08:35Z</time>
      </trkpt>
      <trkpt lat="44.09288" lon="6.23059">
        <ele>589.7</ele>
        <time>2013-07-11T21:08:25Z</time>
      </trkpt>
      <trkpt lat="44.09113" lon="6.23118">
        <ele>592.2</ele>
        <time>2013-07-11T21:08:15Z</time>
      </trkpt>
      <trkpt lat="44.0912" lon="6.22876">
        <ele>594.5742188</ele>
      </trkpt>
      <trkpt lat="44.09058" lon="6.22836">
        <ele>596.3320313</ele>
      </trkpt>
      <trkpt lat="44.08973" lon="6.2279">
        <ele>595.0898438</ele>
      </trkpt>
      <trkpt lat="44.0896" lon="6.22772">
        <ele>595.7695313</ele>
      </trkpt>
      <trkpt lat="44.0896" lon="6.22771">
        <ele>595.8867188</ele>
      </trkpt>
      <trkpt lat="44.08894" lon="6.22552">
        <ele>598.8320313</ele>
      </trkpt>
      <trkpt lat="44.08903" lon="6.22528">
        <ele>601.484375</ele>
      </trkpt>
      <trkpt lat="44.08888" lon="6.22509">
        <ele>599.1171875</ele>
      </trkpt>
      <trkpt lat="44.08876" lon="6.22513">
        <ele>596.2929688</ele>
      </trkpt>
      <trkpt lat="44.08868" lon="6.22527">
        <ele>594.6054688</ele>
      </trkpt>
      <trkpt lat="44.08868" lon="6.22546">
        <ele>594.1523438</ele>
      </trkpt>
      <trkpt lat="44.08852" lon="6.22551">
        <ele>592.4257813</ele>
      </trkpt>
      <trkpt lat="44.08832" lon="6.22544">
        <ele>590.3125</ele>
      </trkpt>
      <trkpt lat="44.08797" lon="6.22481">
        <ele>588.4335938</ele>
      </trkpt>
      <trkpt lat="44.0876" lon="6.22372">
        <ele>587.578125</ele>
      </trkpt>
      <trkpt lat="44.0871" lon="6.22169">
        <ele>587.2773438</ele>
      </trkpt>
      <trkpt lat="44.08573" lon="6.22225">
        <ele>583.7460938</ele>
      </trkpt>
      <trkpt lat="44.08332" lon="6.2175">
        <ele>579.78125</ele>
      </trkpt>
      <trkpt lat="44.08525" lon="6.21604">
        <ele>585.0507813</ele>
      </trkpt>
    </trkseg>
  </trk>
</gpx>